Terminal Aerodrome Forecast
Issued by NWS

Home | Current Version | Previous Version | Text Only | Print | Product List | Glossary Off
Versions: 1 2 3 4 5 6 7 8 9 10 11 12 13 14 15 16 17 18 19 20 21 22 23

000
FTUS43 KBIS 251120
TAFDIK
TAF
KDIK 251120Z 2512/2612 27003KT P6SM OVC025
     FM251700 VRB03KT P6SM VCSH OVC015
     FM252300 10006KT P6SM OVC020
     FM260600 16005KT P6SM BKN050
     FM261000 18004KT P6SM BKN030=

USA.gov is the U.S. government's official web portal to all federal, state and local government web resources and services.